Time;durP1;ratioP1;P1;durP2;ratioP2;P2;SDS_P1;SDS_P2;PMS_P1;PMS_P2;Temp;Humidity;BMP_temperature;BMP_pressure;BME280_temperature;BME280_humidity;BME280_pressure;Samples;Min_cycle;Max_cycle;Signal;HPM_P1;HPM_P2
2021/12/16 00:01:48;;;;;;;21.73;13.68;;;8.30;99.90;;;;;;5034900;28;20041;-71
2021/12/16 00:07:14;;;;;;;21.95;13.57;;;8.20;99.90;;;;;;5032420;28;20159;-70
2021/12/16 00:09:52;;;;;;;27.98;13.82;;;8.20;99.90;;;;;;5035541;28;20041;-71
2021/12/16 00:29:20;;;;;;;25.45;15.05;;;8.20;99.90;;;;;;5033250;28;20390;-70
2021/12/16 00:31:59;;;;;;;25.13;14.32;;;8.20;99.90;;;;;;5035574;28;20041;-70
2021/12/16 00:34:29;;;;;;;22.52;13.65;;;8.20;99.90;;;;;;5034815;28;20120;-70
2021/12/16 00:36:56;;;;;;;25.58;13.48;;;8.20;99.90;;;;;;5031508;28;20414;-70
2021/12/16 00:39:31;;;;;;;22.95;13.57;;;8.20;99.90;;;;;;5035524;28;20064;-70
2021/12/16 00:42:03;;;;;;;25.05;13.40;;;8.10;99.90;;;;;;5032457;28;20059;-70
2021/12/16 00:47:13;;;;;;;21.60;13.10;;;8.10;99.90;;;;;;5035442;28;20128;-70
2021/12/16 00:49:47;;;;;;;25.30;14.07;;;8.00;99.90;;;;;;5032783;28;20037;-70
2021/12/16 00:55:17;;;;;;;21.98;12.95;;;8.00;99.90;;;;;;5034451;28;20374;-70
2021/12/16 00:57:44;;;;;;;24.58;13.52;;;8.00;99.90;;;;;;5030673;28;20054;-70
2021/12/16 01:00:14;;;;;;;26.17;14.23;;;8.00;99.90;;;;;;5037451;28;20045;-70
2021/12/16 01:03:11;;;;;;;23.67;14.30;;;8.00;99.90;;;;;;5034436;28;20041;-70
2021/12/16 01:06:05;;;;;;;21.75;13.85;;;8.00;99.90;;;;;;5030926;28;20535;-70
2021/12/16 01:36:12;;;;;;;23.88;14.98;;;7.60;99.90;;;;;;5030175;28;20053;-70
2021/12/16 01:49:50;;;;;;;32.63;16.13;;;7.60;99.90;;;;;;5035551;28;20052;-70
2021/12/16 01:52:41;;;;;;;19.88;13.13;;;7.60;99.90;;;;;;5038540;28;20059;-70
2021/12/16 01:55:20;;;;;;;24.90;14.73;;;7.60;99.90;;;;;;5038768;28;20194;-70
2021/12/16 01:57:54;;;;;;;27.80;15.50;;;7.60;99.90;;;;;;5036787;28;21705;-70
2021/12/16 02:00:27;;;;;;;31.00;16.13;;;7.40;99.90;;;;;;5031574;28;20482;-70
2021/12/16 02:03:00;;;;;;;25.58;15.43;;;7.40;99.90;;;;;;5040417;28;20166;-70
2021/12/16 02:10:43;;;;;;;29.80;16.17;;;7.50;99.90;;;;;;5039438;28;20140;-69
2021/12/16 02:29:48;;;;;;;27.25;15.27;;;7.70;99.90;;;;;;5044679;28;20764;-69
2021/12/16 02:32:33;;;;;;;24.40;15.47;;;7.70;99.90;;;;;;5044512;28;20109;-69
2021/12/16 02:37:33;;;;;;;27.20;16.83;;;7.70;99.90;;;;;;5038762;28;20338;-70
2021/12/16 02:39:59;;;;;;;26.73;16.27;;;7.60;99.90;;;;;;5037470;28;20045;-70
2021/12/16 02:42:53;;;;;;;33.13;18.73;;;7.60;99.90;;;;;;5036110;28;20443;-70
2021/12/16 02:50:48;;;;;;;26.53;16.20;;;7.70;99.90;;;;;;5039994;28;20487;-70
2021/12/16 02:53:14;;;;;;;26.30;16.80;;;7.80;99.90;;;;;;5041873;28;20069;-70
2021/12/16 02:55:40;;;;;;;27.58;17.25;;;7.80;99.90;;;;;;5036873;28;20776;-70
2021/12/16 02:58:05;;;;;;;29.50;18.70;;;7.80;99.90;;;;;;5039770;28;20170;-70
2021/12/16 03:00:38;;;;;;;32.60;19.70;;;7.80;99.90;;;;;;5037559;28;20037;-70
2021/12/16 03:03:03;;;;;;;27.40;17.52;;;7.90;99.90;;;;;;5034247;28;20140;-70
2021/12/16 03:05:29;;;;;;;29.48;18.08;;;7.90;99.90;;;;;;5033514;28;20129;-70
2021/12/16 03:07:55;;;;;;;33.38;18.83;;;7.90;99.90;;;;;;5032002;28;20033;-70
2021/12/16 03:18:02;;;;;;;31.25;19.45;;;8.00;99.90;;;;;;5035611;28;20053;-70
2021/12/16 03:23:10;;;;;;;29.58;17.88;;;8.00;99.90;;;;;;5038084;28;20050;-70
2021/12/16 03:28:38;;;;;;;29.02;17.67;;;8.10;99.90;;;;;;5040108;28;20128;-70
2021/12/16 03:38:50;;;;;;;30.92;18.63;;;8.10;99.90;;;;;;5036169;28;20049;-71
2021/12/16 03:41:16;;;;;;;35.25;19.80;;;8.10;99.90;;;;;;5040477;28;20053;-71
2021/12/16 03:43:42;;;;;;;31.70;18.92;;;8.10;99.90;;;;;;5037226;28;20426;-71
2021/12/16 03:48:44;;;;;;;32.15;18.70;;;8.10;99.90;;;;;;5038279;28;20049;-71
2021/12/16 03:51:14;;;;;;;31.52;18.25;;;8.10;99.90;;;;;;5042098;28;20084;-71
2021/12/16 03:53:42;;;;;;;35.00;18.75;;;8.10;99.90;;;;;;5038411;28;20805;-71
2021/12/16 03:56:08;;;;;;;31.98;19.00;;;8.10;99.90;;;;;;5036727;28;20073;-70
2021/12/16 03:58:34;;;;;;;28.95;18.13;;;8.10;99.90;;;;;;5040614;28;20040;-71
2021/12/16 04:01:04;;;;;;;32.83;19.08;;;8.20;99.90;;;;;;5039412;28;20041;-71
2021/12/16 04:03:31;;;;;;;32.28;17.92;;;8.20;99.90;;;;;;5035535;28;20029;-71
2021/12/16 04:05:56;;;;;;;30.98;18.10;;;8.20;99.90;;;;;;5038986;28;20174;-71
2021/12/16 04:08:22;;;;;;;38.33;18.73;;;8.20;99.90;;;;;;5043280;28;20441;-71
2021/12/16 04:11:03;;;;;;;32.38;18.40;;;8.20;99.90;;;;;;5033837;28;20057;-71
2021/12/16 04:13:29;;;;;;;31.85;18.48;;;8.20;99.90;;;;;;5034251;28;20080;-70
2021/12/16 04:15:55;;;;;;;29.73;17.73;;;8.20;99.90;;;;;;5041158;28;20076;-70
2021/12/16 04:18:20;;;;;;;32.47;18.58;;;8.20;99.90;;;;;;5034626;28;20046;-71
2021/12/16 04:20:47;;;;;;;35.03;19.33;;;8.20;99.90;;;;;;5039504;28;20049;-70
2021/12/16 04:23:14;;;;;;;31.50;18.42;;;8.20;99.90;;;;;;5040259;28;20064;-70
2021/12/16 04:25:45;;;;;;;33.28;18.58;;;8.20;99.90;;;;;;5044752;28;20076;-70
2021/12/16 04:28:19;;;;;;;32.35;18.95;;;8.30;99.90;;;;;;5040684;28;20049;-70
2021/12/16 04:30:47;;;;;;;37.72;19.23;;;8.30;99.90;;;;;;5035898;28;20048;-70
2021/12/16 04:33:13;;;;;;;35.10;19.08;;;8.30;99.90;;;;;;5037061;28;20045;-69
2021/12/16 04:35:39;;;;;;;31.80;18.77;;;8.30;99.90;;;;;;5032274;28;20507;-70
2021/12/16 04:38:07;;;;;;;30.00;18.38;;;8.30;99.90;;;;;;5042114;28;20048;-70
2021/12/16 04:40:36;;;;;;;29.50;17.58;;;8.30;99.90;;;;;;5044154;28;20465;-70
2021/12/16 04:43:04;;;;;;;31.58;18.15;;;8.30;99.90;;;;;;5038977;28;20132;-70
2021/12/16 04:45:31;;;;;;;28.35;17.33;;;8.30;99.90;;;;;;5034302;28;20090;-70
2021/12/16 04:47:57;;;;;;;32.97;18.55;;;8.30;99.90;;;;;;5038583;28;20049;-70
2021/12/16 04:50:23;;;;;;;32.15;19.80;;;8.30;99.90;;;;;;5036006;28;20041;-69
2021/12/16 04:52:50;;;;;;;35.78;20.23;;;8.30;99.90;;;;;;5034136;28;20430;-69
2021/12/16 04:55:19;;;;;;;36.35;19.55;;;8.30;99.90;;;;;;5032795;28;20064;-69
2021/12/16 04:57:46;;;;;;;31.77;19.45;;;8.30;99.90;;;;;;5036936;28;20033;-69
2021/12/16 05:00:14;;;;;;;34.30;18.83;;;8.30;99.90;;;;;;5033199;28;20208;-69
2021/12/16 05:02:40;;;;;;;30.55;18.65;;;8.40;99.90;;;;;;5044413;28;20125;-69
2021/12/16 05:05:06;;;;;;;32.65;18.30;;;8.40;99.90;;;;;;5036008;28;20132;-68
2021/12/16 05:07:33;;;;;;;33.80;19.50;;;8.40;99.90;;;;;;5036489;28;20049;-69
2021/12/16 05:10:06;;;;;;;32.95;19.63;;;8.40;99.90;;;;;;5039610;28;20117;-69
2021/12/16 05:12:39;;;;;;;36.38;19.45;;;8.40;99.90;;;;;;5039522;28;20045;-69
2021/12/16 05:15:09;;;;;;;29.60;17.05;;;8.40;99.90;;;;;;5035630;28;20102;-68
2021/12/16 05:17:48;;;;;;;33.78;19.48;;;8.40;99.90;;;;;;5033840;28;20041;-69
2021/12/16 05:20:22;;;;;;;33.17;19.10;;;8.40;99.90;;;;;;5036799;28;20029;-69
2021/12/16 05:28:28;;;;;;;38.17;20.27;;;8.40;99.90;;;;;;5029681;28;20064;-71
2021/12/16 05:30:53;;;;;;;35.20;20.52;;;8.40;99.90;;;;;;5038293;28;20105;-71
2021/12/16 05:33:21;;;;;;;35.15;19.88;;;8.40;99.90;;;;;;5034954;28;20088;-71
2021/12/16 05:35:47;;;;;;;32.17;19.27;;;8.40;99.90;;;;;;5031457;28;20068;-70
2021/12/16 05:38:13;;;;;;;37.13;19.35;;;8.40;99.90;;;;;;5043916;28;20079;-71
2021/12/16 05:40:39;;;;;;;33.08;18.48;;;8.50;99.90;;;;;;5046652;28;20040;-70
2021/12/16 05:43:09;;;;;;;33.83;19.70;;;8.50;99.90;;;;;;5041432;28;20044;-71
2021/12/16 05:45:36;;;;;;;32.92;19.60;;;8.40;99.90;;;;;;5033966;28;20060;-70
2021/12/16 05:48:05;;;;;;;29.63;18.33;;;8.50;99.90;;;;;;5034335;28;20123;-71
2021/12/16 05:50:33;;;;;;;30.63;18.30;;;8.50;99.90;;;;;;5034663;28;20053;-70
2021/12/16 05:52:59;;;;;;;34.50;19.25;;;8.50;99.90;;;;;;5031081;28;20049;-69
2021/12/16 05:55:25;;;;;;;30.55;17.42;;;8.50;99.90;;;;;;5037663;28;20127;-70
2021/12/16 05:57:51;;;;;;;28.80;17.23;;;8.50;99.90;;;;;;5031830;28;20195;-71
2021/12/16 06:00:27;;;;;;;28.83;17.73;;;8.40;99.90;;;;;;5035449;28;20701;-71
2021/12/16 06:02:53;;;;;;;28.23;17.85;;;8.40;99.90;;;;;;5032792;28;22249;-70
2021/12/16 06:05:19;;;;;;;33.70;18.40;;;8.30;99.90;;;;;;5033378;28;20057;-71
2021/12/16 06:07:45;;;;;;;32.50;19.75;;;8.30;99.90;;;;;;5033083;28;20052;-71
2021/12/16 06:10:39;;;;;;;34.25;18.08;;;8.30;99.90;;;;;;5036980;28;20128;-71
2021/12/16 06:13:02;;;;;;;31.15;17.58;;;8.30;99.90;;;;;;5032124;28;20156;-71
2021/12/16 06:15:55;;;;;;;31.70;18.95;;;8.30;99.90;;;;;;5029554;28;20228;-70
2021/12/16 06:27:25;;;;;;;33.15;18.77;;;8.10;99.90;;;;;;5031900;28;20053;-70
2021/12/16 06:29:22;;;;;;;29.65;17.95;;;8.10;99.90;;;;;;5033215;28;20157;-70
2021/12/16 06:31:51;;;;;;;32.13;18.55;;;8.10;99.90;;;;;;5045019;28;20468;-69
2021/12/16 06:34:16;;;;;;;33.67;18.67;;;8.10;99.90;;;;;;5037330;28;20091;-67
2021/12/16 06:36:42;;;;;;;32.35;18.75;;;8.10;99.90;;;;;;5035360;28;20041;-67
2021/12/16 06:39:08;;;;;;;29.70;17.92;;;8.10;99.90;;;;;;5031692;28;20045;-68
2021/12/16 06:41:36;;;;;;;31.33;19.38;;;8.10;99.90;;;;;;5037101;28;20318;-69
2021/12/16 06:44:13;;;;;;;33.65;19.10;;;8.10;99.90;;;;;;5041180;28;20416;-67
2021/12/16 06:46:41;;;;;;;32.05;18.30;;;8.10;99.90;;;;;;5043403;28;20412;-65
2021/12/16 06:49:08;;;;;;;32.17;18.98;;;8.20;99.90;;;;;;5031117;28;20088;-67
2021/12/16 06:51:45;;;;;;;32.60;18.30;;;8.20;99.90;;;;;;5035857;28;20049;-67
2021/12/16 06:54:19;;;;;;;37.17;19.55;;;8.20;99.90;;;;;;5030344;28;20053;-66
2021/12/16 06:59:38;;;;;;;29.00;16.75;;;8.20;99.90;;;;;;5033136;28;20045;-69
2021/12/16 07:04:37;;;;;;;29.00;18.02;;;8.20;99.90;;;;;;5032514;28;20052;-69
2021/12/16 07:07:06;;;;;;;30.90;17.55;;;8.10;99.90;;;;;;5038789;28;20045;-68
2021/12/16 07:09:31;;;;;;;31.00;16.90;;;8.10;99.90;;;;;;5036952;28;20135;-67
2021/12/16 07:11:59;;;;;;;26.58;16.20;;;8.10;99.90;;;;;;5037755;28;20085;-67
2021/12/16 07:14:35;;;;;;;25.75;15.48;;;8.10;99.90;;;;;;5035880;28;20051;-67
2021/12/16 07:17:07;;;;;;;26.73;15.70;;;8.10;99.90;;;;;;5032474;28;20500;-68
2021/12/16 07:19:33;;;;;;;33.95;17.55;;;8.10;99.90;;;;;;5034039;28;20057;-68
2021/12/16 07:21:59;;;;;;;31.25;17.60;;;8.00;99.90;;;;;;5036636;28;20052;-68
2021/12/16 07:24:24;;;;;;;29.50;17.30;;;8.00;99.90;;;;;;5027632;28;20041;-67
2021/12/16 07:26:50;;;;;;;32.38;17.67;;;7.90;99.90;;;;;;5033262;28;20075;-68
2021/12/16 07:29:16;;;;;;;27.80;16.85;;;7.90;99.90;;;;;;5031637;28;20045;-67
2021/12/16 07:31:41;;;;;;;29.90;18.88;;;7.90;99.90;;;;;;5037609;28;20508;-67
2021/12/16 07:34:09;;;;;;;30.05;17.27;;;7.90;99.90;;;;;;5050194;28;20480;-68
2021/12/16 07:36:36;;;;;;;41.95;19.00;;;7.90;99.90;;;;;;5036772;28;20078;-68
2021/12/16 07:39:07;;;;;;;69.65;18.73;;;7.90;99.90;;;;;;5030664;28;20049;-68
2021/12/16 07:41:35;;;;;;;32.33;16.10;;;7.90;99.90;;;;;;5033394;28;20104;-68
2021/12/16 07:44:09;;;;;;;116.20;21.52;;;7.80;99.90;;;;;;5041034;28;20045;-67
2021/12/16 07:46:42;;;;;;;44.20;16.40;;;7.80;99.90;;;;;;5034126;28;20051;-67
2021/12/16 07:49:11;;;;;;;88.57;18.25;;;7.70;99.90;;;;;;5047263;28;20171;-68
2021/12/16 07:51:37;;;;;;;99.05;19.33;;;7.70;99.90;;;;;;5034536;28;20055;-66
2021/12/16 07:54:04;;;;;;;51.75;15.50;;;7.70;99.90;;;;;;5037285;28;20087;-66
2021/12/16 07:56:29;;;;;;;29.35;14.70;;;7.60;99.90;;;;;;5035835;28;20080;-67
2021/12/16 07:58:55;;;;;;;72.65;15.93;;;7.60;99.90;;;;;;5035420;28;20128;-66
2021/12/16 08:01:22;;;;;;;103.45;17.23;;;7.70;99.90;;;;;;5038323;28;20041;-67
2021/12/16 08:03:49;;;;;;;61.28;15.40;;;7.60;99.90;;;;;;5039564;28;20041;-66
2021/12/16 08:06:21;;;;;;;27.75;15.05;;;7.60;99.90;;;;;;5035269;28;20052;-67
2021/12/16 08:08:49;;;;;;;106.68;17.90;;;7.60;99.90;;;;;;5034959;28;20053;-67
2021/12/16 08:11:15;;;;;;;82.28;15.88;;;7.50;99.90;;;;;;5033151;28;20060;-68
2021/12/16 08:13:40;;;;;;;55.08;14.65;;;7.60;99.90;;;;;;5039567;28;20036;-67
2021/12/16 08:16:06;;;;;;;38.47;14.93;;;7.50;99.90;;;;;;5038817;28;20052;-67
2021/12/16 08:18:33;;;;;;;69.20;15.70;;;7.50;99.90;;;;;;5037603;28;20041;-67
2021/12/16 08:20:59;;;;;;;80.57;15.88;;;7.40;99.90;;;;;;5032314;28;20107;-66
2021/12/16 08:23:25;;;;;;;54.80;15.60;;;7.40;99.90;;;;;;5041933;28;20108;-67
2021/12/16 08:25:51;;;;;;;35.88;14.48;;;7.40;99.90;;;;;;5040890;28;20045;-67
2021/12/16 08:28:17;;;;;;;46.10;15.10;;;7.30;99.90;;;;;;5037650;28;20423;-67
2021/12/16 08:30:45;;;;;;;78.20;17.27;;;7.30;99.90;;;;;;5036220;28;20041;-67
2021/12/16 08:33:12;;;;;;;61.92;15.63;;;7.30;99.90;;;;;;5039339;28;20212;-67
2021/12/16 08:35:41;;;;;;;54.85;14.88;;;7.30;99.90;;;;;;5039606;28;20045;-67
2021/12/16 08:38:14;;;;;;;65.45;15.55;;;7.30;99.90;;;;;;5049031;28;20052;-67
2021/12/16 08:40:41;;;;;;;74.82;16.80;;;7.30;99.90;;;;;;5034066;28;20503;-67
2021/12/16 08:43:08;;;;;;;31.75;14.07;;;7.40;99.90;;;;;;5031065;28;20045;-67
2021/12/16 08:45:34;;;;;;;43.35;14.13;;;7.40;99.90;;;;;;5029876;28;20092;-68
2021/12/16 08:48:02;;;;;;;19.40;12.02;;;7.40;99.90;;;;;;5027601;28;20076;-68
2021/12/16 08:50:30;;;;;;;26.40;13.25;;;7.50;99.90;;;;;;5029977;28;20045;-68
2021/12/16 08:52:58;;;;;;;27.83;13.13;;;7.50;99.90;;;;;;5028454;28;20137;-67
2021/12/16 08:55:24;;;;;;;21.83;11.80;;;7.60;99.90;;;;;;5041695;28;20044;-68
2021/12/16 08:57:50;;;;;;;54.80;13.82;;;7.50;99.90;;;;;;5049204;28;20037;-68
2021/12/16 09:00:22;;;;;;;17.23;11.20;;;7.50;99.90;;;;;;5038041;28;20033;-68
2021/12/16 09:02:48;;;;;;;44.55;12.77;;;7.60;99.90;;;;;;5043026;28;20472;-69
2021/12/16 09:05:13;;;;;;;34.28;12.70;;;7.60;99.90;;;;;;5037713;28;20060;-67
2021/12/16 09:07:40;;;;;;;33.53;12.88;;;7.50;99.90;;;;;;5045795;28;20076;-67
2021/12/16 09:10:10;;;;;;;51.97;13.60;;;7.60;99.90;;;;;;5036058;28;20049;-68
2021/12/16 09:12:49;;;;;;;24.75;12.93;;;7.60;99.90;;;;;;5052962;28;20079;-67
2021/12/16 09:15:15;;;;;;;33.42;12.52;;;7.60;99.90;;;;;;5025020;28;20056;-68
2021/12/16 09:17:41;;;;;;;86.75;15.75;;;7.60;99.90;;;;;;5028690;28;20041;-67
2021/12/16 09:20:08;;;;;;;91.65;16.27;;;7.60;99.90;;;;;;5038487;28;20419;-67
2021/12/16 09:22:34;;;;;;;82.55;15.18;;;7.60;99.90;;;;;;5034723;28;20494;-66
2021/12/16 09:25:01;;;;;;;36.63;13.43;;;7.60;99.90;;;;;;5027299;28;20041;-67
2021/12/16 09:27:27;;;;;;;97.07;15.63;;;7.70;99.90;;;;;;5027700;28;20132;-68
2021/12/16 09:29:54;;;;;;;65.95;15.10;;;7.80;99.90;;;;;;5035242;28;20098;-68
2021/12/16 09:32:22;;;;;;;102.88;16.17;;;7.80;99.90;;;;;;5026869;28;20136;-68
2021/12/16 09:34:48;;;;;;;18.05;11.18;;;7.80;99.90;;;;;;5029343;28;20045;-68
2021/12/16 09:37:14;;;;;;;35.33;11.77;;;7.70;99.90;;;;;;5028970;28;20042;-68
2021/12/16 09:39:40;;;;;;;85.05;15.38;;;7.80;99.90;;;;;;5028763;28;20215;-69
2021/12/16 09:42:07;;;;;;;95.18;15.55;;;7.80;99.90;;;;;;5043523;28;20057;-68
2021/12/16 09:44:33;;;;;;;53.83;13.70;;;7.90;99.90;;;;;;5044560;28;20515;-67
2021/12/16 09:47:01;;;;;;;77.63;15.05;;;7.90;99.90;;;;;;5041071;28;20041;-67
2021/12/16 09:49:27;;;;;;;136.52;18.30;;;7.80;99.90;;;;;;5033167;28;20057;-67
2021/12/16 09:51:55;;;;;;;61.50;14.85;;;7.80;99.90;;;;;;5043265;28;20063;-67
2021/12/16 09:54:25;;;;;;;96.50;15.80;;;7.80;99.90;;;;;;5047458;28;20131;-66
2021/12/16 09:56:51;;;;;;;98.22;15.88;;;7.80;99.90;;;;;;5039328;28;20049;-67
2021/12/16 09:59:18;;;;;;;20.10;11.98;;;7.90;99.90;;;;;;5035300;28;20049;-68
2021/12/16 10:01:47;;;;;;;21.30;11.93;;;8.00;99.90;;;;;;5031992;28;20304;-66
2021/12/16 10:04:15;;;;;;;22.25;12.40;;;8.10;99.90;;;;;;5025134;28;20046;-67
2021/12/16 10:06:42;;;;;;;17.25;11.70;;;8.10;99.90;;;;;;5026344;28;20053;-66
2021/12/16 10:09:10;;;;;;;21.50;11.25;;;8.20;99.90;;;;;;5027617;28;20046;-67
2021/12/16 10:11:39;;;;;;;75.85;13.52;;;8.20;99.90;;;;;;5025928;28;20065;-66
2021/12/16 10:19:36;;;;;;;22.02;11.70;;;8.30;99.90;;;;;;5045381;28;20076;-66
2021/12/16 10:22:20;;;;;;;41.38;11.45;;;8.40;99.90;;;;;;5033485;28;20472;-67
2021/12/16 10:24:48;;;;;;;59.38;13.27;;;8.40;99.90;;;;;;5043753;28;20132;-65
2021/12/16 10:27:19;;;;;;;66.68;13.18;;;8.50;99.90;;;;;;5046403;28;20080;-66
2021/12/16 10:29:50;;;;;;;34.13;11.45;;;8.50;99.90;;;;;;5035612;28;20049;-65
2021/12/16 10:32:39;;;;;;;99.80;15.27;;;8.50;99.90;;;;;;5030213;28;20819;-68
2021/12/16 10:35:30;;;;;;;131.65;15.85;;;8.60;99.90;;;;;;5046995;28;20041;-67
2021/12/16 10:37:59;;;;;;;68.57;12.40;;;8.60;99.90;;;;;;5046594;28;20049;-65
2021/12/16 10:40:37;;;;;;;29.60;10.93;;;8.70;99.90;;;;;;5034854;28;20134;-64
2021/12/16 10:43:08;;;;;;;89.53;12.80;;;8.70;99.90;;;;;;5040279;28;20049;-66
2021/12/16 10:45:41;;;;;;;33.22;11.15;;;8.70;99.90;;;;;;5034376;28;20045;-68
2021/12/16 10:48:35;;;;;;;21.73;10.43;;;8.80;99.90;;;;;;5048576;28;20369;-67
2021/12/16 10:51:26;;;;;;;19.92;10.43;;;8.70;99.90;;;;;;5021897;28;20188;-68
2021/12/16 10:54:05;;;;;;;27.38;10.30;;;8.70;99.90;;;;;;5047721;28;20469;-68
2021/12/16 10:56:56;;;;;;;32.55;10.15;;;8.80;99.90;;;;;;5030959;28;20033;-69
2021/12/16 10:59:38;;;;;;;100.60;13.40;;;8.90;99.90;;;;;;5029432;28;20095;-69
2021/12/16 11:02:08;;;;;;;68.63;12.48;;;8.80;99.90;;;;;;5029330;28;20385;-69
2021/12/16 11:04:42;;;;;;;124.30;15.55;;;8.80;99.90;;;;;;5029632;28;20045;-69
2021/12/16 11:07:16;;;;;;;27.98;11.20;;;8.80;99.90;;;;;;5041914;28;20088;-70
2021/12/16 11:09:53;;;;;;;70.38;13.18;;;8.70;99.90;;;;;;5028224;28;20037;-70
2021/12/16 11:12:24;;;;;;;166.88;18.38;;;8.80;99.90;;;;;;5030696;28;20046;-66
2021/12/16 11:14:55;;;;;;;76.50;13.25;;;8.80;99.90;;;;;;5032224;28;20524;-67
2021/12/16 11:17:24;;;;;;;20.38;10.95;;;8.90;99.90;;;;;;5049078;28;20048;-66
2021/12/16 11:19:50;;;;;;;41.28;12.13;;;8.90;99.90;;;;;;5045705;28;20088;-66
2021/12/16 11:22:23;;;;;;;99.00;15.18;;;8.90;99.90;;;;;;5029643;28;20049;-66
2021/12/16 11:24:52;;;;;;;19.52;11.35;;;8.90;99.90;;;;;;5047005;28;20099;-66
2021/12/16 11:27:23;;;;;;;128.82;16.00;;;8.80;99.90;;;;;;5028324;28;20331;-65
2021/12/16 11:29:49;;;;;;;41.35;13.07;;;8.90;99.90;;;;;;5030518;28;20404;-67
2021/12/16 11:32:36;;;;;;;23.45;12.30;;;8.90;99.90;;;;;;5037625;28;20051;-66
2021/12/16 11:35:33;;;;;;;19.33;11.77;;;8.90;99.90;;;;;;5048110;28;20511;-71
2021/12/16 11:38:04;;;;;;;21.85;10.10;;;9.00;99.90;;;;;;5035148;28;20129;-69
2021/12/16 11:40:52;;;;;;;17.67;10.45;;;9.00;99.90;;;;;;5030472;28;20072;-69
2021/12/16 11:43:34;;;;;;;30.13;12.25;;;9.10;99.90;;;;;;5027885;28;20064;-69
2021/12/16 11:46:00;;;;;;;32.88;12.13;;;9.20;99.90;;;;;;5028612;28;20136;-70
2021/12/16 11:48:30;;;;;;;126.45;15.40;;;9.20;99.90;;;;;;5029874;28;20132;-69
2021/12/16 11:51:06;;;;;;;34.72;11.60;;;9.10;99.90;;;;;;5047140;28;20055;-70
2021/12/16 11:53:39;;;;;;;18.85;11.48;;;9.10;99.90;;;;;;5034757;28;20105;-71
2021/12/16 11:56:06;;;;;;;23.75;12.25;;;9.20;99.90;;;;;;5028512;28;20159;-72
2021/12/16 11:58:31;;;;;;;30.52;12.30;;;9.20;99.90;;;;;;5029392;28;20400;-70
2021/12/16 12:00:58;;;;;;;84.78;14.63;;;9.20;99.90;;;;;;5040686;28;20063;-71
2021/12/16 12:03:33;;;;;;;44.22;12.73;;;9.30;99.90;;;;;;5046080;28;20049;-72
2021/12/16 12:05:58;;;;;;;66.80;14.95;;;9.20;99.90;;;;;;5046305;28;20131;-71
2021/12/16 12:08:27;;;;;;;36.53;13.02;;;9.20;99.90;;;;;;5046874;28;20076;-71
2021/12/16 12:11:06;;;;;;;62.13;14.32;;;9.20;99.90;;;;;;5029138;28;20147;-71
2021/12/16 12:13:38;;;;;;;61.13;14.75;;;9.20;99.90;;;;;;5039116;28;20060;-71
2021/12/16 12:16:13;;;;;;;22.00;12.20;;;9.20;99.90;;;;;;5030982;28;20052;-71
2021/12/16 12:18:52;;;;;;;63.78;14.30;;;9.20;99.90;;;;;;5042960;28;20140;-71
2021/12/16 12:21:30;;;;;;;45.65;13.65;;;9.20;99.90;;;;;;5046304;28;20546;-71
2021/12/16 12:24:03;;;;;;;43.20;13.68;;;9.20;99.90;;;;;;5032861;28;20041;-71
2021/12/16 12:26:32;;;;;;;28.33;14.50;;;9.20;99.90;;;;;;5039107;28;20152;-71
2021/12/16 12:29:09;;;;;;;86.50;16.33;;;9.30;99.90;;;;;;5047265;28;20468;-71
2021/12/16 12:31:39;;;;;;;31.92;14.18;;;9.20;99.90;;;;;;5048813;28;20443;-71
2021/12/16 12:34:04;;;;;;;33.42;15.18;;;9.20;99.90;;;;;;5029758;28;20111;-71
2021/12/16 12:36:30;;;;;;;93.53;17.60;;;9.20;99.90;;;;;;5025720;28;20630;-71
2021/12/16 12:38:57;;;;;;;85.75;17.30;;;9.20;99.90;;;;;;5029217;28;20049;-72
2021/12/16 12:41:23;;;;;;;98.10;17.83;;;9.20;99.90;;;;;;5027846;28;20049;-72
2021/12/16 12:43:50;;;;;;;107.45;19.25;;;9.10;99.90;;;;;;5043599;28;20049;-72
2021/12/16 12:46:17;;;;;;;75.47;17.17;;;9.10;99.90;;;;;;5028367;28;20057;-71
2021/12/16 12:48:43;;;;;;;60.70;16.05;;;9.10;99.90;;;;;;5046503;28;20041;-71
2021/12/16 12:51:09;;;;;;;93.10;17.45;;;9.10;99.90;;;;;;5047215;28;20075;-71
2021/12/16 12:53:47;;;;;;;59.42;17.40;;;9.10;99.90;;;;;;5034450;28;20433;-71
2021/12/16 12:56:23;;;;;;;91.68;17.25;;;9.10;99.90;;;;;;5028654;28;20041;-71
2021/12/16 12:58:58;;;;;;;120.47;19.13;;;9.10;99.90;;;;;;5029651;28;20470;-71
2021/12/16 13:01:52;;;;;;;85.10;16.83;;;9.10;99.90;;;;;;5046029;28;20063;-71
2021/12/16 13:04:29;;;;;;;118.78;16.80;;;9.10;99.90;;;;;;5047527;28;20077;-70
2021/12/16 13:07:07;;;;;;;45.58;14.45;;;9.10;99.90;;;;;;5037829;28;20041;-70
2021/12/16 13:09:42;;;;;;;45.97;13.07;;;9.20;99.90;;;;;;5047617;28;20358;-70
2021/12/16 13:12:36;;;;;;;23.42;11.45;;;9.20;99.90;;;;;;5042057;28;20053;-70
2021/12/16 13:15:47;;;;;;;101.18;14.40;;;9.30;99.90;;;;;;5032227;28;20060;-70
2021/12/16 13:24:13;;;;;;;114.18;13.77;;;9.20;99.90;;;;;;5026923;28;20089;-71
2021/12/16 13:26:51;;;;;;;28.83;11.35;;;9.20;99.90;;;;;;5039869;28;20045;-71
2021/12/16 13:29:40;;;;;;;116.10;15.30;;;9.20;99.90;;;;;;5045759;28;20448;-70
2021/12/16 13:32:14;;;;;;;44.55;12.70;;;9.20;99.90;;;;;;5033523;28;20205;-71
2021/12/16 13:34:51;;;;;;;100.28;14.55;;;9.20;99.90;;;;;;5035604;28;20186;-71
2021/12/16 13:37:39;;;;;;;70.00;13.65;;;9.20;99.90;;;;;;5025841;28;20053;-71
2021/12/16 13:40:14;;;;;;;28.17;10.95;;;9.20;99.90;;;;;;5028218;28;20068;-71
2021/12/16 13:42:49;;;;;;;37.33;11.57;;;9.20;99.90;;;;;;5027290;28;20045;-71
2021/12/16 13:45:25;;;;;;;104.00;14.02;;;9.20;99.90;;;;;;5040050;28;20059;-71
2021/12/16 13:48:23;;;;;;;81.20;12.77;;;9.20;99.90;;;;;;5028975;28;20037;-72
2021/12/16 14:02:51;;;;;;;40.92;11.88;;;9.20;99.90;;;;;;5047285;28;20502;-71
2021/12/16 14:05:38;;;;;;;52.10;12.10;;;9.20;99.90;;;;;;5015301;28;20053;-71
2021/12/16 14:08:07;;;;;;;52.90;10.75;;;9.20;99.90;;;;;;5027321;28;20067;-71
2021/12/16 14:10:43;;;;;;;54.00;11.77;;;9.20;99.90;;;;;;5027551;28;20092;-71
2021/12/16 14:16:41;;;;;;;38.00;10.85;;;9.10;99.90;;;;;;5026859;28;20444;-71
2021/12/16 14:38:54;;;;;;;24.42;9.98;;;9.00;99.90;;;;;;5030408;28;20113;-70
2021/12/16 14:46:45;;;;;;;58.08;13.30;;;9.00;99.90;;;;;;5032775;28;20163;-70
2021/12/16 14:49:11;;;;;;;37.45;11.60;;;9.00;99.90;;;;;;5029811;28;20107;-70
2021/12/16 14:51:37;;;;;;;50.05;12.25;;;8.90;99.90;;;;;;5040031;28;20053;-70
2021/12/16 14:54:03;;;;;;;46.13;12.52;;;8.90;99.90;;;;;;5030093;28;20378;-70
2021/12/16 14:56:32;;;;;;;19.50;10.50;;;8.90;99.90;;;;;;5040995;28;20394;-71
2021/12/16 14:59:14;;;;;;;31.92;12.40;;;8.90;99.90;;;;;;5050073;28;20048;-70
2021/12/16 15:01:45;;;;;;;56.90;13.88;;;8.90;99.90;;;;;;5044464;28;20037;-70
2021/12/16 15:04:15;;;;;;;44.83;14.45;;;8.90;99.90;;;;;;5051332;28;20049;-71
2021/12/16 15:06:55;;;;;;;86.03;16.33;;;8.80;99.90;;;;;;5029646;28;20442;-70
2021/12/16 15:09:27;;;;;;;92.05;16.27;;;8.80;99.90;;;;;;5030080;28;20057;-71
2021/12/16 15:12:08;;;;;;;57.45;15.45;;;8.80;99.90;;;;;;5029517;28;20052;-71
2021/12/16 15:39:13;;;;;;;40.72;12.50;;;8.60;99.90;;;;;;5049636;28;20464;-70
2021/12/16 15:44:20;;;;;;;32.38;9.90;;;8.50;99.90;;;;;;5057607;28;20048;-70
2021/12/16 15:46:48;;;;;;;46.72;10.25;;;8.40;99.90;;;;;;5049522;28;20480;-70
2021/12/16 15:49:14;;;;;;;51.95;10.80;;;8.40;99.90;;;;;;5038224;28;20073;-71
2021/12/16 15:51:40;;;;;;;42.17;11.80;;;8.40;99.90;;;;;;5036439;28;20099;-70
2021/12/16 15:54:08;;;;;;;54.15;11.45;;;8.40;99.90;;;;;;5044439;28;20452;-70
2021/12/16 15:56:37;;;;;;;35.70;9.82;;;8.30;99.90;;;;;;5049130;28;20125;-70
2021/12/16 15:59:13;;;;;;;41.53;10.57;;;8.30;99.90;;;;;;5038042;28;20049;-70
2021/12/16 16:01:42;;;;;;;53.75;10.73;;;8.30;99.90;;;;;;5029763;28;20084;-71
2021/12/16 16:04:17;;;;;;;72.82;13.15;;;8.30;99.90;;;;;;5044220;28;20041;-71
2021/12/16 16:06:49;;;;;;;63.78;14.50;;;8.30;99.90;;;;;;5037693;28;20381;-70
2021/12/16 16:09:16;;;;;;;51.97;14.20;;;8.30;99.90;;;;;;5030569;28;20150;-71
2021/12/16 16:11:46;;;;;;;40.40;12.75;;;8.30;99.90;;;;;;5059994;28;20497;-71
2021/12/16 16:14:14;;;;;;;34.08;12.05;;;8.40;99.90;;;;;;5061677;28;20198;-70
2021/12/16 16:16:47;;;;;;;74.65;14.93;;;8.40;99.90;;;;;;5030038;28;20124;-70
2021/12/16 16:19:18;;;;;;;116.25;17.48;;;8.40;99.90;;;;;;5040505;28;20045;-71
2021/12/16 16:21:47;;;;;;;66.30;15.13;;;8.40;99.90;;;;;;5043061;28;20049;-70
2021/12/16 16:24:17;;;;;;;78.45;18.40;;;8.40;99.90;;;;;;5043512;28;20037;-69
2021/12/16 16:26:44;;;;;;;88.68;16.50;;;8.40;99.90;;;;;;5028236;28;20150;-69
2021/12/16 16:29:16;;;;;;;59.58;15.93;;;8.40;99.90;;;;;;5033385;28;20045;-70
2021/12/16 16:31:42;;;;;;;60.17;15.63;;;8.40;99.90;;;;;;5030620;28;20065;-72